Time;durP1;ratioP1;P1;durP2;ratioP2;P2;SDS_P1;SDS_P2;PMS_P1;PMS_P2;Temp;Humidity;BMP_temperature;BMP_pressure;BME280_temperature;BME280_humidity;BME280_pressure;Samples;Min_cycle;Max_cycle;Signal;HPM_P1;HPM_P2
2022/04/18 00:01:56;;;;;;;19.13;12.38;;;;;;;7.25;61.06;101932.47;5051980;28;20370;-71
2022/04/18 00:04:22;;;;;;;19.10;12.65;;;;;;;7.20;60.69;101929.44;5051654;28;20420;-71
2022/04/18 00:06:47;;;;;;;18.65;11.95;;;;;;;7.17;61.13;101930.56;5051990;28;20035;-71
2022/04/18 00:09:14;;;;;;;19.52;12.02;;;;;;;7.13;62.15;101929.19;5051847;28;20552;-71
2022/04/18 00:11:39;;;;;;;20.50;13.02;;;;;;;7.09;61.58;101932.28;5051465;28;20427;-71
2022/04/18 00:14:05;;;;;;;16.08;11.35;;;;;;;7.11;60.90;101927.69;5051566;28;20025;-71
2022/04/18 00:16:30;;;;;;;21.40;12.07;;;;;;;7.14;60.44;101927.38;5051556;28;20055;-71
2022/04/18 00:18:56;;;;;;;18.13;11.73;;;;;;;7.12;60.58;101921.38;5051819;28;20602;-71
2022/04/18 00:21:21;;;;;;;18.80;10.70;;;;;;;7.14;59.92;101920.25;5051830;28;20025;-71
2022/04/18 00:23:47;;;;;;;19.48;11.98;;;;;;;7.13;60.79;101923.91;5051688;28;20033;-71
2022/04/18 00:26:13;;;;;;;18.58;11.38;;;;;;;7.13;59.48;101923.91;5051653;28;20043;-71
2022/04/18 00:28:39;;;;;;;16.45;10.15;;;;;;;7.13;59.09;101917.75;5051446;28;20060;-71
2022/04/18 00:31:04;;;;;;;17.63;10.20;;;;;;;7.10;59.72;101910.06;5051403;28;20127;-71
2022/04/18 00:33:30;;;;;;;18.35;11.05;;;;;;;7.12;61.63;101918.72;5051557;28;20136;-71
2022/04/18 00:35:56;;;;;;;17.90;9.15;;;;;;;7.07;59.87;101911.19;5051511;28;20032;-71
2022/04/18 00:38:22;;;;;;;19.15;10.43;;;;;;;7.09;61.92;101911.91;5050986;28;20072;-71
2022/04/18 00:40:48;;;;;;;13.88;8.70;;;;;;;7.11;59.05;101917.06;5050469;28;20017;-71
2022/04/18 00:43:14;;;;;;;15.55;8.27;;;;;;;7.13;58.84;101915.09;5051409;28;20093;-71
2022/04/18 00:45:39;;;;;;;13.48;8.55;;;;;;;7.14;58.09;101914.13;5051209;28;20040;-71
2022/04/18 00:48:05;;;;;;;12.70;7.80;;;;;;;7.16;58.20;101904.19;5051375;28;20467;-71
2022/04/18 00:50:33;;;;;;;17.77;9.10;;;;;;;7.17;59.25;101911.16;5049711;28;20033;-71
2022/04/18 00:52:59;;;;;;;15.18;8.13;;;;;;;7.17;61.26;101912.00;5051000;28;20090;-71
2022/04/18 00:55:26;;;;;;;14.50;8.25;;;;;;;7.14;59.22;101899.03;5050867;28;20037;-71
2022/04/18 00:57:54;;;;;;;11.93;7.35;;;;;;;7.17;60.22;101901.38;5050784;28;20036;-71
2022/04/18 01:00:20;;;;;;;11.93;7.43;;;;;;;7.18;59.51;101903.06;5050956;28;20182;-71
2022/04/18 01:02:45;;;;;;;14.05;7.40;;;;;;;7.15;60.48;101903.38;5050643;28;20079;-71
2022/04/18 01:05:11;;;;;;;14.73;7.57;;;;;;;7.13;59.80;101901.84;5050876;28;20055;-71
2022/04/18 01:07:37;;;;;;;12.10;7.13;;;;;;;7.06;60.02;101901.59;5050486;28;20112;-71
2022/04/18 01:10:07;;;;;;;13.60;6.57;;;;;;;7.10;58.03;101907.41;5050762;28;20531;-71
2022/04/18 01:12:33;;;;;;;12.68;7.05;;;;;;;7.09;58.40;101908.41;5050438;28;20037;-71
2022/04/18 01:14:59;;;;;;;15.55;7.03;;;;;;;7.08;59.40;101898.81;5050704;28;20021;-71
2022/04/18 01:17:25;;;;;;;13.32;7.03;;;;;;;7.06;58.16;101903.41;5050858;28;20025;-71
2022/04/18 01:19:51;;;;;;;12.10;6.30;;;;;;;7.02;59.02;101901.06;5049416;28;20043;-71
2022/04/18 01:22:18;;;;;;;11.20;6.90;;;;;;;6.99;58.83;101903.97;5050188;28;20029;-71
2022/04/18 01:30:14;;;;;;;9.15;6.32;;;;;;;6.90;59.70;101896.09;5050457;28;20133;-71
2022/04/18 01:32:39;;;;;;;9.05;4.90;;;;;;;6.93;59.46;101901.09;5050257;28;20531;-71
2022/04/18 01:35:05;;;;;;;11.43;5.25;;;;;;;6.91;58.29;101898.59;5050313;28;20465;-71
2022/04/18 01:37:30;;;;;;;15.23;5.63;;;;;;;6.91;59.36;101897.75;5048963;28;20043;-71
2022/04/18 01:39:56;;;;;;;10.05;5.93;;;;;;;6.88;60.99;101898.88;5050389;28;20029;-71
2022/04/18 01:42:21;;;;;;;8.38;5.93;;;;;;;6.84;59.55;101891.34;5050103;28;20062;-71
2022/04/18 01:44:47;;;;;;;10.20;6.03;;;;;;;6.86;59.88;101898.19;5050317;28;20048;-71
2022/04/18 01:47:12;;;;;;;9.45;5.40;;;;;;;6.82;59.51;101890.69;5050124;28;20388;-71
2022/04/18 01:49:38;;;;;;;10.88;5.78;;;;;;;6.83;59.72;101893.19;5050216;28;20036;-71
2022/04/18 01:52:03;;;;;;;6.68;4.47;;;;;;;6.77;58.99;101888.47;5050015;28;20029;-71
2022/04/18 01:54:29;;;;;;;7.47;4.68;;;;;;;6.78;59.77;101896.25;5050105;28;20388;-71
2022/04/18 01:56:54;;;;;;;11.30;5.93;;;;;;;6.76;60.27;101892.13;5049588;28;20499;-71
2022/04/18 01:59:19;;;;;;;9.65;6.20;;;;;;;6.70;60.82;101888.19;5049733;28;20040;-71
2022/04/18 02:01:45;;;;;;;10.63;5.20;;;;;;;6.62;61.39;101888.09;5049520;28;20032;-71
2022/04/18 02:04:10;;;;;;;8.07;5.20;;;;;;;6.48;61.14;101884.09;5048401;28;20494;-71
2022/04/18 02:06:35;;;;;;;11.60;6.40;;;;;;;6.42;61.87;101884.69;5048508;28;20132;-71
2022/04/18 02:09:01;;;;;;;10.10;6.05;;;;;;;6.32;62.75;101874.13;5049294;28;20056;-71
2022/04/18 02:11:27;;;;;;;11.77;6.00;;;;;;;6.30;62.10;101880.53;5049763;28;20110;-71
2022/04/18 02:13:52;;;;;;;9.88;5.75;;;;;;;6.21;63.06;101879.59;5049374;28;20451;-71
2022/04/18 02:16:18;;;;;;;11.88;5.80;;;;;;;6.10;62.17;101872.63;5049621;28;20394;-71
2022/04/18 02:18:44;;;;;;;8.82;5.15;;;;;;;6.09;63.47;101880.72;5048278;28;20025;-71
2022/04/18 02:21:12;;;;;;;9.63;5.30;;;;;;;6.02;63.36;101869.00;5049567;28;20039;-71
2022/04/18 02:23:40;;;;;;;10.63;5.28;;;;;;;6.01;65.81;101876.13;5050015;28;20033;-71
2022/04/18 02:26:05;;;;;;;10.43;5.95;;;;;;;5.94;65.52;101875.00;5049170;28;20035;-71
2022/04/18 02:28:31;;;;;;;10.90;6.32;;;;;;;5.87;65.31;101877.38;5049276;28;20055;-71
2022/04/18 02:30:57;;;;;;;9.65;5.30;;;;;;;5.80;65.14;101875.41;5049321;28;20059;-71
2022/04/18 02:33:23;;;;;;;12.52;6.70;;;;;;;5.72;64.39;101868.16;5049061;28;20369;-71
2022/04/18 02:35:48;;;;;;;10.80;5.97;;;;;;;5.68;64.41;101867.59;5049286;28;20059;-71
2022/04/18 02:38:14;;;;;;;12.18;5.82;;;;;;;5.67;65.50;101875.69;5049210;28;20033;-71
2022/04/18 02:40:39;;;;;;;9.02;5.75;;;;;;;5.63;65.22;101869.84;5049271;28;20575;-71
2022/04/18 02:43:05;;;;;;;11.88;6.47;;;;;;;5.58;65.64;101873.88;5049226;28;20064;-71
2022/04/18 02:45:32;;;;;;;11.48;6.47;;;;;;;5.51;65.63;101872.75;5049325;28;20171;-71
2022/04/18 02:47:57;;;;;;;10.73;6.22;;;;;;;5.42;66.01;101867.34;5049170;28;20025;-71
2022/04/18 02:50:23;;;;;;;11.65;6.38;;;;;;;5.35;65.56;101868.03;5049282;28;20029;-71
2022/04/18 02:52:48;;;;;;;12.13;6.45;;;;;;;5.28;65.78;101865.06;5048954;28;20029;-71
2022/04/18 02:55:13;;;;;;;13.23;6.40;;;;;;;5.19;66.19;101858.81;5048817;28;20123;-71
2022/04/18 02:57:40;;;;;;;9.90;5.93;;;;;;;5.14;66.56;101857.53;5048957;28;20037;-71
2022/04/18 03:00:06;;;;;;;9.95;5.70;;;;;;;5.10;67.28;101858.78;5048683;28;20037;-71
2022/04/18 03:02:32;;;;;;;9.95;5.72;;;;;;;5.08;68.16;101853.59;5048933;28;20023;-71
2022/04/18 03:04:57;;;;;;;13.52;5.88;;;;;;;5.02;68.83;101856.81;5052718;28;20057;-71
2022/04/18 03:07:23;;;;;;;8.68;6.07;;;;;;;4.92;68.29;101850.66;5051612;28;20056;-71
2022/04/18 03:09:48;;;;;;;12.18;6.20;;;;;;;4.82;67.96;101845.31;5052629;28;20033;-71
2022/04/18 03:12:13;;;;;;;11.57;6.18;;;;;;;4.78;69.97;101854.50;5052781;28;20056;-71
2022/04/18 03:14:39;;;;;;;12.43;5.68;;;;;;;4.75;69.43;101844.22;5052846;28;20043;-71
2022/04/18 03:17:04;;;;;;;9.07;5.35;;;;;;;4.72;69.42;101847.97;5052704;28;20032;-71
2022/04/18 03:19:29;;;;;;;10.55;5.72;;;;;;;4.61;69.30;101835.69;5053098;28;20021;-71
2022/04/18 03:21:55;;;;;;;10.70;6.18;;;;;;;4.64;68.89;101847.78;5052857;28;20645;-71
2022/04/18 03:24:20;;;;;;;9.35;6.00;;;;;;;4.62;68.62;101841.81;5053009;28;20094;-71
2022/04/18 03:26:45;;;;;;;10.70;4.93;;;;;;;4.63;68.62;101842.63;5052455;28;20129;-71
2022/04/18 03:29:11;;;;;;;9.13;5.45;;;;;;;4.57;69.49;101838.72;5052627;28;20079;-71
2022/04/18 03:31:36;;;;;;;11.27;6.47;;;;;;;4.56;69.62;101835.25;5051309;28;20388;-71
2022/04/18 03:34:02;;;;;;;10.10;5.97;;;;;;;4.44;69.74;101823.09;5052649;28;20565;-71
2022/04/18 03:41:55;;;;;;;8.63;5.32;;;;;;;4.34;70.48;101820.41;5052531;28;20641;-71
2022/04/18 03:44:21;;;;;;;9.93;5.78;;;;;;;4.42;71.47;101848.78;5052524;28;20025;-71
2022/04/18 03:46:46;;;;;;;10.25;6.00;;;;;;;4.41;71.29;101838.38;5052730;28;20577;-71
2022/04/18 03:49:12;;;;;;;12.77;6.10;;;;;;;4.27;71.73;101821.91;5052307;28;20025;-70
2022/04/18 03:51:37;;;;;;;10.68;6.22;;;;;;;4.30;72.66;101834.84;5050908;28;20036;-71
2022/04/18 03:54:02;;;;;;;10.30;5.95;;;;;;;4.27;72.44;101836.91;5052423;28;20475;-71
2022/04/18 03:56:28;;;;;;;10.40;5.22;;;;;;;4.14;71.75;101832.69;5052293;28;20033;-71
2022/04/18 03:58:53;;;;;;;11.15;6.70;;;;;;;4.03;70.97;101819.53;5050950;28;20033;-71
2022/04/18 04:01:18;;;;;;;11.82;6.05;;;;;;;4.07;71.24;101839.44;5051341;28;20041;-71
2022/04/18 04:03:44;;;;;;;13.32;5.60;;;;;;;4.05;71.28;101832.63;5051531;28;20144;-71
2022/04/18 04:06:09;;;;;;;10.50;5.03;;;;;;;4.05;71.21;101830.81;5051984;28;20049;-71
2022/04/18 04:08:34;;;;;;;7.88;5.43;;;;;;;4.05;72.59;101836.09;5051433;28;20074;-71
2022/04/18 04:11:00;;;;;;;11.70;5.85;;;;;;;3.98;72.54;101820.91;5051930;28;20071;-71
2022/04/18 04:13:25;;;;;;;12.27;5.45;;;;;;;4.01;73.10;101831.19;5051496;28;20052;-71
2022/04/18 04:15:50;;;;;;;14.85;6.60;;;;;;;3.97;72.41;101827.16;5050697;28;20028;-71
2022/04/18 04:18:16;;;;;;;12.18;6.45;;;;;;;3.89;72.00;101828.63;5051617;28;20488;-71
2022/04/18 04:20:41;;;;;;;11.60;5.65;;;;;;;3.89;72.33;101828.63;5051794;28;20391;-71
2022/04/18 04:23:07;;;;;;;12.57;6.32;;;;;;;3.87;72.64;101825.28;5051724;28;20078;-71
2022/04/18 04:25:32;;;;;;;11.30;5.80;;;;;;;3.85;72.52;101829.88;5051607;28;20094;-71
2022/04/18 04:27:57;;;;;;;10.73;5.78;;;;;;;3.84;72.84;101828.19;5049925;28;20041;-71
2022/04/18 04:30:23;;;;;;;12.40;6.85;;;;;;;3.81;72.41;101814.41;5050283;28;20041;-71
2022/04/18 04:32:50;;;;;;;10.43;6.05;;;;;;;3.87;73.08;101829.72;5051395;28;20044;-71
2022/04/18 04:35:16;;;;;;;9.63;5.97;;;;;;;3.88;73.12;101826.97;5051408;28;20029;-71
2022/04/18 04:37:42;;;;;;;12.07;6.40;;;;;;;3.89;73.43;101823.34;5051222;28;20098;-71
2022/04/18 04:40:08;;;;;;;11.48;6.07;;;;;;;3.90;73.74;101830.31;5051239;28;20033;-71
2022/04/18 04:42:34;;;;;;;11.77;6.03;;;;;;;3.91;73.65;101824.06;5051225;28;20533;-71
2022/04/18 04:44:59;;;;;;;11.55;5.47;;;;;;;3.92;73.07;101832.81;5049974;28;20064;-71
2022/04/18 04:47:25;;;;;;;10.50;5.97;;;;;;;3.93;72.93;101827.41;5051096;28;20086;-71
2022/04/18 04:49:50;;;;;;;14.63;6.38;;;;;;;3.90;72.13;101819.75;5051006;28;20144;-71
2022/04/18 04:52:15;;;;;;;10.75;6.03;;;;;;;3.94;71.94;101828.25;5051229;28;20472;-71
2022/04/18 04:54:41;;;;;;;11.32;6.47;;;;;;;3.97;72.24;101835.91;5049720;28;20075;-71
2022/04/18 04:57:06;;;;;;;10.88;5.45;;;;;;;4.03;72.49;101832.72;5050975;28;20036;-71
2022/04/18 04:59:31;;;;;;;11.27;6.25;;;;;;;4.09;73.26;101834.88;5050952;28;20044;-71
2022/04/18 05:01:57;;;;;;;9.63;5.95;;;;;;;4.12;74.07;101834.63;5050554;28;20021;-71
2022/04/18 05:04:25;;;;;;;11.20;5.47;;;;;;;4.16;73.51;101836.00;5049995;28;20060;-71
2022/04/18 05:06:51;;;;;;;8.98;5.53;;;;;;;4.25;74.89;101839.69;5050282;28;20045;-71
2022/04/18 05:09:16;;;;;;;11.43;5.38;;;;;;;4.81;74.48;101838.38;5051015;28;20059;-71
2022/04/18 05:11:42;;;;;;;12.27;5.70;;;;;;;5.69;68.59;101839.34;5051084;28;20044;-71
2022/04/18 05:14:07;;;;;;;12.05;6.90;;;;;;;6.36;64.73;101832.25;5050302;28;20033;-71
2022/04/18 05:16:32;;;;;;;9.82;5.60;;;;;;;7.00;62.86;101842.00;5050845;28;20078;-71
2022/04/18 05:18:58;;;;;;;10.95;6.13;;;;;;;7.30;62.81;101847.13;5050611;28;20025;-71
2022/04/18 05:21:24;;;;;;;10.93;4.88;;;;;;;7.47;62.63;101841.00;5050672;28;20476;-71
2022/04/18 05:23:49;;;;;;;9.32;5.72;;;;;;;7.44;61.56;101860.72;5050037;28;20400;-71
2022/04/18 05:26:15;;;;;;;10.18;6.22;;;;;;;7.25;63.25;101847.56;5050036;28;20028;-71
2022/04/18 05:28:41;;;;;;;10.18;6.53;;;;;;;7.28;62.11;101857.06;5050222;28;20024;-71
2022/04/18 05:31:07;;;;;;;10.20;4.82;;;;;;;7.75;62.86;101857.66;5050329;28;20033;-71
2022/04/18 05:33:32;;;;;;;7.55;4.70;;;;;;;8.42;61.52;101859.84;5050384;28;20365;-71
2022/04/18 05:35:58;;;;;;;9.07;5.20;;;;;;;9.11;58.60;101853.47;5050374;28;20037;-71
2022/04/18 05:38:23;;;;;;;9.25;5.32;;;;;;;9.20;58.09;101847.19;5049589;28;20028;-71
2022/04/18 05:40:48;;;;;;;11.05;6.47;;;;;;;8.93;60.17;101847.41;5050156;28;20603;-71
2022/04/18 05:43:17;;;;;;;12.02;5.75;;;;;;;8.84;56.01;101849.22;5050189;28;20115;-71
2022/04/18 05:45:42;;;;;;;9.55;5.07;;;;;;;8.93;56.98;101844.75;5050024;28;20376;-71
2022/04/18 05:48:08;;;;;;;7.70;4.43;;;;;;;9.07;59.35;101846.00;5049688;28;20025;-71
2022/04/18 05:50:34;;;;;;;12.85;6.25;;;;;;;8.96;57.23;101839.97;5050254;28;20052;-71
2022/04/18 05:53:00;;;;;;;11.00;5.75;;;;;;;8.80;57.21;101845.22;5048778;28;20055;-71
2022/04/18 05:55:25;;;;;;;12.50;6.20;;;;;;;8.65;57.86;101842.34;5050059;28;20668;-71
2022/04/18 05:57:52;;;;;;;13.98;5.18;;;;;;;8.78;56.52;101832.09;5049759;28;20029;-71
2022/04/18 06:00:18;;;;;;;10.73;5.38;;;;;;;9.34;56.04;101837.72;5049537;28;20033;-71
2022/04/18 06:02:44;;;;;;;15.00;5.70;;;;;;;9.66;54.15;101834.22;5049428;28;20380;-71
2022/04/18 06:05:09;;;;;;;11.68;5.88;;;;;;;9.74;54.11;101833.41;5049011;28;20021;-71
2022/04/18 06:07:35;;;;;;;13.50;5.78;;;;;;;9.57;55.24;101827.25;5049105;28;20033;-71
2022/04/18 06:10:02;;;;;;;7.57;5.28;;;;;;;9.43;56.10;101827.91;5049642;28;20112;-71
2022/04/18 06:12:28;;;;;;;11.70;5.20;;;;;;;9.56;54.56;101835.41;5049193;28;20021;-71
2022/04/18 06:14:54;;;;;;;9.75;5.40;;;;;;;9.79;54.64;101833.75;5049388;28;20029;-71
2022/04/18 06:17:19;;;;;;;9.35;4.93;;;;;;;10.05;52.32;101830.06;5049276;28;20088;-71
2022/04/18 06:19:44;;;;;;;10.07;5.47;;;;;;;10.12;53.37;101840.88;5049223;28;20958;-71
2022/04/18 06:22:10;;;;;;;10.13;5.57;;;;;;;9.97;52.88;101846.06;5031659;28;20116;-73
2022/04/18 06:24:35;;;;;;;9.55;4.60;;;;;;;9.76;54.13;101846.56;5044271;28;20025;-72
2022/04/18 06:27:00;;;;;;;10.10;5.75;;;;;;;9.58;55.70;101839.56;5043692;28;20029;-71
2022/04/18 06:29:26;;;;;;;8.82;5.05;;;;;;;9.56;56.05;101835.41;5045028;28;20032;-71
2022/04/18 06:31:53;;;;;;;10.77;4.75;;;;;;;9.59;54.92;101841.25;5048412;28;20342;-70
2022/04/18 06:34:19;;;;;;;8.00;4.43;;;;;;;9.65;55.64;101853.88;5049664;28;20040;-70
2022/04/18 06:36:45;;;;;;;10.00;4.55;;;;;;;9.83;55.12;101858.22;5049240;28;20116;-71
2022/04/18 06:39:10;;;;;;;7.20;4.93;;;;;;;10.01;55.17;101856.22;5048631;28;20055;-71
2022/04/18 06:41:35;;;;;;;6.55;4.10;;;;;;;10.15;54.31;101854.69;5048063;28;20052;-71
2022/04/18 06:44:01;;;;;;;6.22;4.25;;;;;;;10.28;55.04;101862.22;5048810;28;20032;-71
2022/04/18 06:46:27;;;;;;;7.03;4.28;;;;;;;10.50;53.41;101856.13;5049178;28;20115;-71
2022/04/18 06:48:53;;;;;;;7.97;5.75;;;;;;;10.58;50.72;101852.63;5048826;28;20127;-71
2022/04/18 06:51:18;;;;;;;8.95;4.13;;;;;;;10.45;51.02;101861.19;5048867;28;20076;-70
2022/04/18 06:53:43;;;;;;;9.57;4.97;;;;;;;10.31;54.03;101853.88;5049100;28;20063;-70
2022/04/18 06:58:53;;;;;;;19.45;5.07;;;;;;;10.12;50.84;101846.22;5049643;28;20059;-70
2022/04/18 07:01:18;;;;;;;14.43;5.85;;;;;;;10.12;51.17;101852.38;5048985;28;20029;-73
2022/04/18 07:03:44;;;;;;;7.60;4.38;;;;;;;10.16;52.93;101844.84;5048818;28;20458;-71
2022/04/18 07:06:09;;;;;;;11.57;4.93;;;;;;;10.23;54.22;101849.34;5048449;28;20488;-71
2022/04/18 07:08:34;;;;;;;7.78;4.20;;;;;;;10.30;53.88;101842.38;5048864;28;20064;-71
2022/04/18 07:11:00;;;;;;;6.50;4.95;;;;;;;10.40;52.99;101850.19;5048876;28;20503;-71
2022/04/18 07:13:25;;;;;;;7.55;4.00;;;;;;;10.48;50.84;101844.84;5048979;28;20369;-71
2022/04/18 07:15:52;;;;;;;7.75;4.68;;;;;;;10.59;51.47;101845.47;5047740;28;20021;-71
2022/04/18 07:18:17;;;;;;;5.65;3.80;;;;;;;10.66;54.22;101843.75;5047194;28;20491;-71
2022/04/18 07:20:43;;;;;;;12.40;5.40;;;;;;;10.80;53.42;101839.53;5048646;28;20037;-71
2022/04/18 07:23:08;;;;;;;7.10;3.95;;;;;;;10.95;48.53;101833.28;5048823;28;20031;-71
2022/04/18 07:25:33;;;;;;;22.48;5.43;;;;;;;11.20;49.28;101841.16;5048443;28;20056;-70
2022/04/18 07:27:59;;;;;;;8.70;5.00;;;;;;;11.77;50.47;101845.25;5048742;28;20032;-71
2022/04/18 07:30:29;;;;;;;7.38;4.30;;;;;;;12.58;48.62;101838.28;5047675;28;20476;-70
2022/04/18 07:32:55;;;;;;;5.72;3.95;;;;;;;13.19;46.78;101831.81;5048643;28;20033;-70
2022/04/18 07:35:20;;;;;;;11.93;4.93;;;;;;;13.42;45.22;101837.03;5048448;28;20361;-70
2022/04/18 07:40:29;;;;;;;7.65;4.57;;;;;;;14.11;45.96;101837.19;5048726;28;20083;-71
2022/04/18 07:42:55;;;;;;;7.80;4.05;;;;;;;14.08;42.48;101836.75;5048176;28;20037;-71
2022/04/18 07:45:21;;;;;;;4.05;3.47;;;;;;;14.16;45.47;101842.78;5047608;28;20079;-71
2022/04/18 07:47:46;;;;;;;5.15;3.50;;;;;;;14.48;43.85;101830.59;5048390;28;20132;-71
2022/04/18 07:50:11;;;;;;;5.03;3.10;;;;;;;15.03;44.05;101832.50;5050785;28;20061;-71
2022/04/18 07:52:37;;;;;;;4.90;3.67;;;;;;;15.93;41.13;101831.22;5052198;28;20063;-71
2022/04/18 07:55:02;;;;;;;5.47;3.55;;;;;;;17.00;39.53;101814.75;5052322;28;20472;-71
2022/04/18 07:57:27;;;;;;;7.50;4.05;;;;;;;18.47;36.82;101830.56;5052424;28;20373;-71
2022/04/18 07:59:53;;;;;;;3.97;3.00;;;;;;;20.07;32.97;101824.53;5051792;28;20059;-71
2022/04/18 08:02:19;;;;;;;5.97;3.10;;;;;;;21.44;32.01;101819.44;5049479;28;20484;-71
2022/04/18 08:04:45;;;;;;;4.80;3.90;;;;;;;22.64;28.22;101816.28;5046609;28;20452;-71
2022/04/18 08:07:10;;;;;;;6.40;3.75;;;;;;;23.12;27.72;101820.91;5047420;28;20051;-70
2022/04/18 08:09:35;;;;;;;5.53;4.05;;;;;;;23.80;27.82;101812.25;5047217;28;20024;-69
2022/04/18 08:12:01;;;;;;;4.53;3.25;;;;;;;24.80;25.59;101814.94;5047411;28;20099;-68
2022/04/18 08:14:26;;;;;;;5.60;3.33;;;;;;;25.99;24.63;101813.91;5047245;28;20033;-69
2022/04/18 08:16:52;;;;;;;5.10;3.38;;;;;;;26.84;23.45;101810.31;5047350;28;20024;-71
2022/04/18 08:19:17;;;;;;;5.88;3.30;;;;;;;27.50;23.31;101818.06;5047884;28;20033;-73
2022/04/18 08:21:42;;;;;;;4.03;2.85;;;;;;;27.66;20.46;101821.47;5051215;28;20083;-72
2022/04/18 08:24:08;;;;;;;5.07;3.53;;;;;;;27.94;22.08;101810.84;5051157;28;20090;-71
2022/04/18 08:26:34;;;;;;;4.90;2.95;;;;;;;27.98;19.88;101825.59;5051189;28;20032;-72
2022/04/18 08:28:59;;;;;;;4.03;3.00;;;;;;;27.36;20.40;101816.28;5051408;28;20040;-72
2022/04/18 08:31:25;;;;;;;4.40;3.25;;;;;;;26.55;20.60;101808.28;5050857;28;20423;-71
2022/04/18 08:33:50;;;;;;;3.78;2.80;;;;;;;26.29;22.17;101806.72;5046068;28;20039;-70
2022/04/18 08:36:15;;;;;;;5.65;3.00;;;;;;;26.47;21.84;101811.56;5046752;28;20037;-72
2022/04/18 08:38:41;;;;;;;4.30;3.65;;;;;;;26.19;22.32;101805.66;5051384;28;20029;-72
2022/04/18 08:41:10;;;;;;;7.82;3.60;;;;;;;25.61;22.22;101807.13;5051229;28;20052;-72
2022/04/18 08:43:35;;;;;;;5.43;3.22;;;;;;;24.27;21.30;101808.72;5050977;28;20032;-72
2022/04/18 08:46:07;;;;;;;5.15;3.53;;;;;;;22.21;25.82;101815.19;5050662;28;20037;-71
2022/04/18 08:54:05;;;;;;;3.28;2.67;;;;;;;18.84;30.75;101812.50;5051443;28;20055;-71
2022/04/18 08:56:31;;;;;;;5.60;2.92;;;;;;;18.54;30.40;101809.72;5051021;28;20036;-71
2022/04/18 08:58:57;;;;;;;6.05;3.78;;;;;;;18.39;32.92;101801.97;5050919;28;20021;-71
2022/04/18 09:01:22;;;;;;;6.15;3.53;;;;;;;18.17;32.47;101802.44;5050347;28;20063;-71
2022/04/18 09:03:47;;;;;;;4.95;3.53;;;;;;;18.05;33.72;101804.22;5049429;28;20049;-71
2022/04/18 09:06:13;;;;;;;6.00;3.25;;;;;;;17.95;35.74;101807.44;5050690;28;20391;-71
2022/04/18 09:08:53;;;;;;;5.10;3.63;;;;;;;17.78;35.01;101786.59;5050867;28;20116;-71
2022/04/18 09:11:33;;;;;;;4.07;3.25;;;;;;;17.76;33.43;101800.31;5050382;28;20067;-71
2022/04/18 09:14:07;;;;;;;5.28;3.80;;;;;;;17.71;34.23;101809.09;5050785;28;20025;-72
2022/04/18 09:16:33;;;;;;;4.55;3.25;;;;;;;17.63;35.08;101801.25;5050670;28;20039;-72
2022/04/18 09:19:09;;;;;;;5.05;3.47;;;;;;;17.63;36.49;101805.81;5050300;28;20029;-71
2022/04/18 09:21:41;;;;;;;3.50;3.13;;;;;;;17.56;36.07;101805.88;5049977;28;20031;-72
2022/04/18 09:24:06;;;;;;;;;;;;;;;17.60;36.03;101804.38;5050589;28;20586;-71
2022/04/18 09:26:32;;;;;;;;;;;;;;;17.68;36.28;101806.81;5050746;28;19919;-71
2022/04/18 09:29:06;;;;;;;;;;;;;;;17.76;35.71;101797.59;5050906;28;19921;-72
2022/04/18 09:31:39;;;;;;;;;;;;;;;17.86;36.88;101803.34;5050710;28;19912;-71
2022/04/18 09:34:05;;;;;;;;;;;;;;;18.01;37.23;101799.50;5050397;28;19920;-72
2022/04/18 09:36:30;;;;;;;;;;;;;;;18.13;36.26;101798.53;5050783;28;19916;-72
2022/04/18 09:38:56;;;;;;;;;;;;;;;18.21;35.98;101796.56;5050763;28;19912;-72
2022/04/18 09:41:28;;;;;;;;;;;;;;;18.27;36.55;101791.13;5050483;28;20640;-72
2022/04/18 09:43:54;;;;;;;;;;;;;;;18.37;35.85;101796.00;5050656;28;20007;-72
2022/04/18 09:46:20;;;;;;;;;;;;;;;18.40;33.68;101790.13;5050472;28;20382;-71
2022/04/18 09:48:46;;;;;;;;;;;;;;;18.46;35.88;101786.53;5050497;28;20007;-71
2022/04/18 09:51:15;;;;;;;;;;;;;;;18.64;32.87;101785.69;5050581;28;20367;-72
2022/04/18 09:53:43;;;;;;;;;;;;;;;18.68;34.10;101789.59;5050535;28;20407;-72
2022/04/18 09:56:12;;;;;;;;;;;;;;;18.67;33.38;101785.22;5050450;28;20032;-72
2022/04/18 09:58:38;;;;;;;;;;;;;;;18.66;31.97;101780.88;5050133;28;19944;-72
2022/04/18 10:01:05;;;;;;;;;;;;;;;18.71;35.80;101782.91;5049794;28;20356;-72
2022/04/18 10:03:30;;;;;;;;;;;;;;;18.73;35.70;101773.53;5050222;28;19920;-71
2022/04/18 10:05:57;;;;;;;;;;;;;;;18.67;30.61;101771.72;5050214;28;19916;-71
2022/04/18 10:08:22;;;;;;;;;;;;;;;18.47;34.68;101773.84;5050220;28;19995;-71
2022/04/18 10:10:48;;;;;;;;;;;;;;;18.49;35.22;101771.75;5050074;28;20050;-72
2022/04/18 10:13:13;;;;;;;;;;;;;;;18.62;35.90;101767.00;5049145;28;20019;-72
2022/04/18 10:15:41;;;;;;;;;;;;;;;18.72;35.00;101765.63;5048802;28;19912;-72
2022/04/18 10:18:08;;;;;;;;;;;;;;;18.74;33.70;101769.75;5050094;28;20272;-71
2022/04/18 10:20:45;;;;;;;;;;;;;;;18.81;35.29;101764.28;5049962;28;20287;-71
2022/04/18 10:23:16;;;;;;;;;;;;;;;18.88;34.04;101762.31;5050019;28;19966;-71
2022/04/18 10:26:00;;;;;;;;;;;;;;;18.80;34.59;101758.06;5049939;28;19913;-72
2022/04/18 10:28:32;;;;;;;;;;;;;;;18.68;31.86;101759.03;5049853;28;19927;-71
2022/04/18 10:31:01;;;;;;;;;;;;;;;18.47;31.03;101752.22;5049823;28;19924;-71
2022/04/18 10:33:27;;;;;;;;;;;;;;;18.38;32.26;101747.13;5049724;28;19920;-72
2022/04/18 10:35:53;;;;;;;;;;;;;;;18.39;35.18;101750.66;5049815;28;19913;-71
2022/04/18 10:38:23;;;;;;;;;;;;;;;18.52;35.75;101746.97;5049604;28;20007;-72
2022/04/18 10:40:48;;;;;;;;;;;;;;;18.56;32.77;101748.19;5048417;28;19924;-72
2022/04/18 10:43:14;;;;;;;;;;;;;;;18.56;34.03;101748.19;5082045;28;19916;-71
2022/04/18 10:45:40;;;;;;;;;;;;;;;18.55;30.51;101746.53;5049688;28;19912;-71
2022/04/18 10:48:07;;;;;;;;;;;;;;;18.59;33.69;101745.84;5049619;28;19912;-71
2022/04/18 10:50:32;;;;;;;;;;;;;;;18.76;35.26;101734.44;5049301;28;19916;-71
2022/04/18 10:53:08;;;;;;;;;;;;;;;18.92;34.59;101739.19;5049503;28;19924;-71
2022/04/18 10:55:33;;;;;;;;;;;;;;;18.97;32.48;101728.50;5049602;28;19916;-71
2022/04/18 10:58:18;;;;;;;;;;;;;;;18.97;29.98;101728.50;5048158;28;19921;-71
2022/04/18 11:00:51;;;;;;;;;;;;;;;18.96;33.73;101734.94;5045147;28;19912;-71
2022/04/18 11:03:36;;;;;;;;;;;;;;;19.04;34.79;101729.22;5049466;28;19920;-71
2022/04/18 11:06:21;;;;;;;;;;;;;;;19.17;32.52;101732.78;5045031;28;20065;-71
2022/04/18 11:09:16;;;;;;;;;;;;;;;19.26;33.29;101731.38;5051607;28;19913;-71
2022/04/18 11:11:50;;;;;;;;;;;;;;;19.30;28.94;101729.03;5044437;28;19920;-71
2022/04/18 11:14:15;;;;;;;;;;;;;;;19.20;30.48;101724.19;5049469;28;19909;-71
2022/04/18 11:16:44;;;;;;;;;;;;;;;19.14;33.35;101720.53;5049454;28;20268;-71
2022/04/18 11:19:16;;;;;;;;;;;;;;;19.16;33.74;101715.72;5049455;28;19970;-71
2022/04/18 11:22:01;;;;;;;;;;;;;;;19.20;33.99;101710.66;5049295;28;19913;-71
2022/04/18 11:24:35;;;;;;;;;;;;;;;19.16;29.27;101713.03;5050174;28;19912;-71
2022/04/18 11:27:00;;;;;;;;;;;;;;;19.04;29.94;101712.16;5053191;28;19916;-71
2022/04/18 11:29:27;;;;;;;;;;;;;;;18.95;32.59;101708.16;5053326;28;20346;-72
2022/04/18 11:31:52;;;;;;;;;;;;;;;19.05;33.46;101705.72;5053152;28;19916;-71
2022/04/18 11:34:18;;;;;;;;;;;;;;;19.19;33.39;101701.72;5053170;28;19932;-71
2022/04/18 11:36:43;;;;;;;;;;;;;;;19.23;33.61;101693.97;5053141;28;19954;-71
2022/04/18 11:39:10;;;;;;;;;;;;;;;19.33;29.84;101696.09;5052920;28;19909;-71
2022/04/18 11:41:35;;;;;;;;;;;;;;;19.18;28.51;101691.16;5052894;28;19917;-71
2022/04/18 11:44:02;;;;;;;;;;;;;;;19.06;31.62;101693.84;5052908;28;19951;-71
2022/04/18 11:46:28;;;;;;;;;;;;;;;19.03;31.13;101695.13;5052752;28;20283;-71
2022/04/18 11:48:53;;;;;;;;;;;;;;;19.04;31.77;101687.84;5052786;28;19916;-71
2022/04/18 11:51:35;;;;;;;;;;;;;;;19.15;30.07;101691.59;5052824;28;19927;-71
2022/04/18 11:54:01;;;;;;;;;;;;;;;19.21;28.40;101683.41;5052744;28;19947;-71
2022/04/18 11:56:26;;;;;;;;;;;;;;;19.25;32.51;101694.56;5052341;28;20319;-71
2022/04/18 11:58:53;;;;;;;;;;;;;;;19.23;29.50;101696.66;5052627;28;19921;-71
2022/04/18 12:06:49;;;;;;;;;;;;;;;19.22;32.50;101686.91;5079977;28;20031;-72